Aviation Digital Data Service (ADDS)

Output produced by METARs form (1859 UTC 18 April 2019)
found at http://www.aviationweather.gov/metar/data/
 
METAR text: GABS 181830Z 04008KT CAVOK 39/M03 Q1008 NOSIG
Conditions at: GABS (BAMAKO/SENOU (MI, ML) observed 1830 UTC 18 April 2019
Temperature: 39.0°C (102°F)
Dewpoint: -3.0°C (27°F) [RH =  7%]
Pressure (altimeter): 29.76 inches Hg (1008.0 mb)
Winds: from the NE (40 degrees) at 9 MPH (8 knots; 4.1 m/s)
Visibility: 6 or more miles (10+ km)
Ceiling: ceiling and visibility are OK
Clouds: unknown
Weather: no significant weather observed at this time

METAR text: GABS 181800Z 04008KT 010V080 CAVOK 40/M02 Q1008 NOSIG
Conditions at: GABS (BAMAKO/SENOU (MI, ML) observed 1800 UTC 18 April 2019
Temperature: 40.0°C (104°F)
Dewpoint: -2.0°C (28°F) [RH =  7%]
Pressure (altimeter): 29.76 inches Hg (1008.0 mb)
Winds: from the NE (40 degrees) at 9 MPH (8 knots; 4.1 m/s)
Visibility: 6 or more miles (10+ km)
Ceiling: ceiling and visibility are OK
Clouds: unknown
Weather: no significant weather observed at this time

METAR text: GABS 181730Z 06009KT 040V100 CAVOK 41/M04 Q1008 NOSIG
Conditions at: GABS (BAMAKO/SENOU (MI, ML) observed 1730 UTC 18 April 2019
Temperature: 41.0°C (106°F)
Dewpoint: -4.0°C (25°F) [RH =  6%]
Pressure (altimeter): 29.76 inches Hg (1008.0 mb)
Winds: from the ENE (60 degrees) at 10 MPH (9 knots; 4.6 m/s)
Visibility: 6 or more miles (10+ km)
Ceiling: ceiling and visibility are OK
Clouds: unknown
Weather: no significant weather observed at this time

METAR text: GABS 181700Z 05009KT 020V110 CAVOK 41/M04 Q1008 NOSIG
Conditions at: GABS (BAMAKO/SENOU (MI, ML) observed 1700 UTC 18 April 2019
Temperature: 41.0°C (106°F)
Dewpoint: -4.0°C (25°F) [RH =  6%]
Pressure (altimeter): 29.76 inches Hg (1008.0 mb)
Winds: from the NE (50 degrees) at 10 MPH (9 knots; 4.6 m/s)
Visibility: 6 or more miles (10+ km)
Ceiling: ceiling and visibility are OK
Clouds: unknown
Weather: no significant weather observed at this time

METAR text: GABS 181630Z 06010KT 010V090 CAVOK 41/M01 Q1008 NOSIG
Conditions at: GABS (BAMAKO/SENOU (MI, ML) observed 1630 UTC 18 April 2019
Temperature: 41.0°C (106°F)
Dewpoint: -1.0°C (30°F) [RH =  7%]
Pressure (altimeter): 29.76 inches Hg (1008.0 mb)
Winds: from the ENE (60 degrees) at 12 MPH (10 knots; 5.1 m/s)
Visibility: 6 or more miles (10+ km)
Ceiling: ceiling and visibility are OK
Clouds: unknown
Weather: no significant weather observed at this time

METAR text: GABS 181600Z VRB07KT CAVOK 41/01 Q1008 NOSIG
Conditions at: GABS (BAMAKO/SENOU (MI, ML) observed 1600 UTC 18 April 2019
Temperature: 41.0°C (106°F)
Dewpoint: 1.0°C (34°F) [RH =  8%]
Pressure (altimeter): 29.76 inches Hg (1008.0 mb)
Winds: variable direction winds at 8 MPH (7 knots; 3.6 m/s)
Visibility: 6 or more miles (10+ km)
Ceiling: ceiling and visibility are OK
Clouds: unknown
Weather: no significant weather observed at this time

METAR text: GABS 181530Z 04009KT 350V080 CAVOK 41/00 Q1009 NOSIG
Conditions at: GABS (BAMAKO/SENOU (MI, ML) observed 1530 UTC 18 April 2019
Temperature: 41.0°C (106°F)
Dewpoint: 0.0°C (32°F) [RH =  8%]
Pressure (altimeter): 29.79 inches Hg (1009.0 mb)
Winds: from the NE (40 degrees) at 10 MPH (9 knots; 4.6 m/s)
Visibility: 6 or more miles (10+ km)
Ceiling: ceiling and visibility are OK
Clouds: unknown
Weather: no significant weather observed at this time

METAR text: GABS 181500Z 03013KT 360V070 CAVOK 41/02 Q1009 NOSIG
Conditions at: GABS (BAMAKO/SENOU (MI, ML) observed 1500 UTC 18 April 2019
Temperature: 41.0°C (106°F)
Dewpoint: 2.0°C (36°F) [RH =  9%]
Pressure (altimeter): 29.79 inches Hg (1009.0 mb)
Winds: from the NNE (30 degrees) at 15 MPH (13 knots; 6.7 m/s)
Visibility: 6 or more miles (10+ km)
Ceiling: ceiling and visibility are OK
Clouds: unknown
Weather: no significant weather observed at this time

METAR text: GABS 181430Z 04010KT 020V080 CAVOK 41/02 Q1009 NOSIG
Conditions at: GABS (BAMAKO/SENOU (MI, ML) observed 1430 UTC 18 April 2019
Temperature: 41.0°C (106°F)
Dewpoint: 2.0°C (36°F) [RH =  9%]
Pressure (altimeter): 29.79 inches Hg (1009.0 mb)
Winds: from the NE (40 degrees) at 12 MPH (10 knots; 5.1 m/s)
Visibility: 6 or more miles (10+ km)
Ceiling: ceiling and visibility are OK
Clouds: unknown
Weather: no significant weather observed at this time

METAR text: GABS 181400Z VRB08KT CAVOK 41/02 Q1010 NOSIG
Conditions at: GABS (BAMAKO/SENOU (MI, ML) observed 1400 UTC 18 April 2019
Temperature: 41.0°C (106°F)
Dewpoint: 2.0°C (36°F) [RH =  9%]
Pressure (altimeter): 29.82 inches Hg (1010.0 mb)
Winds: variable direction winds at 9 MPH (8 knots; 4.1 m/s)
Visibility: 6 or more miles (10+ km)
Ceiling: ceiling and visibility are OK
Clouds: unknown
Weather: no significant weather observed at this time

METAR text: GABS 181330Z 06010G21KT 020V100 CAVOK 41/02 Q1010 NOSIG
Conditions at: GABS (BAMAKO/SENOU (MI, ML) observed 1330 UTC 18 April 2019
Temperature: 41.0°C (106°F)
Dewpoint: 2.0°C (36°F) [RH =  9%]
Pressure (altimeter): 29.82 inches Hg (1010.0 mb)
Winds: from the ENE (60 degrees) at 12 MPH (10 knots; 5.1 m/s)
gusting to 24 MPH (21 knots; 10.8 m/s)
Visibility: 6 or more miles (10+ km)
Ceiling: ceiling and visibility are OK
Clouds: unknown
Weather: no significant weather observed at this time

METAR text: GABS 181300Z 09010KT 050V110 CAVOK 41/00 Q1011 NOSIG
Conditions at: GABS (BAMAKO/SENOU (MI, ML) observed 1300 UTC 18 April 2019
Temperature: 41.0°C (106°F)
Dewpoint: 0.0°C (32°F) [RH =  8%]
Pressure (altimeter): 29.85 inches Hg (1011.0 mb)
Winds: from the E (90 degrees) at 12 MPH (10 knots; 5.1 m/s)
Visibility: 6 or more miles (10+ km)
Ceiling: ceiling and visibility are OK
Clouds: unknown
Weather: no significant weather observed at this time

METAR text: GABS 181230Z 05012KT CAVOK 40/00 Q1012 NOSIG
Conditions at: GABS (BAMAKO/SENOU (MI, ML) observed 1230 UTC 18 April 2019
Temperature: 40.0°C (104°F)
Dewpoint: 0.0°C (32°F) [RH =  8%]
Pressure (altimeter): 29.88 inches Hg (1012.0 mb)
Winds: from the NE (50 degrees) at 14 MPH (12 knots; 6.2 m/s)
Visibility: 6 or more miles (10+ km)
Ceiling: ceiling and visibility are OK
Clouds: unknown
Weather: no significant weather observed at this time

METAR text: GABS 181200Z 09009KT 010V140 CAVOK 40/04 Q1012 NOSIG
Conditions at: GABS (BAMAKO/SENOU (MI, ML) observed 1200 UTC 18 April 2019
Temperature: 40.0°C (104°F)
Dewpoint: 4.0°C (39°F) [RH = 11%]
Pressure (altimeter): 29.88 inches Hg (1012.0 mb)
Winds: from the E (90 degrees) at 10 MPH (9 knots; 4.6 m/s)
Visibility: 6 or more miles (10+ km)
Ceiling: ceiling and visibility are OK
Clouds: unknown
Weather: no significant weather observed at this time

METAR text: GABS 181130Z 06009KT 020V090 CAVOK 38/04 Q1012 NOSIG
Conditions at: GABS (BAMAKO/SENOU (MI, ML) observed 1130 UTC 18 April 2019
Temperature: 38.0°C (100°F)
Dewpoint: 4.0°C (39°F) [RH = 12%]
Pressure (altimeter): 29.88 inches Hg (1012.0 mb)
Winds: from the ENE (60 degrees) at 10 MPH (9 knots; 4.6 m/s)
Visibility: 6 or more miles (10+ km)
Ceiling: ceiling and visibility are OK
Clouds: unknown
Weather: no significant weather observed at this time

METAR text: GABS 181100Z 07008KT 030V150 CAVOK 38/03 Q1013 NOSIG
Conditions at: GABS (BAMAKO/SENOU (MI, ML) observed 1100 UTC 18 April 2019
Temperature: 38.0°C (100°F)
Dewpoint: 3.0°C (37°F) [RH = 11%]
Pressure (altimeter): 29.91 inches Hg (1013.0 mb)
Winds: from the ENE (70 degrees) at 9 MPH (8 knots; 4.1 m/s)
Visibility: 6 or more miles (10+ km)
Ceiling: ceiling and visibility are OK
Clouds: unknown
Weather: no significant weather observed at this time

METAR text: GABS 181030Z 06009KT CAVOK 37/01 Q1013 NOSIG
Conditions at: GABS (BAMAKO/SENOU (MI, ML) observed 1030 UTC 18 April 2019
Temperature: 37.0°C (99°F)
Dewpoint: 1.0°C (34°F) [RH = 10%]
Pressure (altimeter): 29.91 inches Hg (1013.0 mb)
Winds: from the ENE (60 degrees) at 10 MPH (9 knots; 4.6 m/s)
Visibility: 6 or more miles (10+ km)
Ceiling: ceiling and visibility are OK
Clouds: unknown
Weather: no significant weather observed at this time

METAR text: GABS 181000Z 06008KT CAVOK 36/01 Q1013 NOSIG
Conditions at: GABS (BAMAKO/SENOU (MI, ML) observed 1000 UTC 18 April 2019
Temperature: 36.0°C (97°F)
Dewpoint: 1.0°C (34°F) [RH = 11%]
Pressure (altimeter): 29.91 inches Hg (1013.0 mb)
Winds: from the ENE (60 degrees) at 9 MPH (8 knots; 4.1 m/s)
Visibility: 6 or more miles (10+ km)
Ceiling: ceiling and visibility are OK
Clouds: unknown
Weather: no significant weather observed at this time

METAR text: GABS 180930Z 07006KT 040V100 8000 NSC 35/10 Q1013 NOSIG
Conditions at: GABS (BAMAKO/SENOU (MI, ML) observed 0930 UTC 18 April 2019
Temperature: 35.0°C (95°F)
Dewpoint: 10.0°C (50°F) [RH = 22%]
Pressure (altimeter): 29.91 inches Hg (1013.0 mb)
Winds: from the ENE (70 degrees) at 7 MPH (6 knots; 3.1 m/s)
Visibility: 5 miles ( 8 km)
Ceiling: at least 12,000 feet AGL
Clouds: sky clear below 12,000 feet AGL
Weather: no significant weather observed at this time

METAR text: GABS 180900Z 05005KT 360V080 6000 NSC 34/13 Q1013 NOSIG
Conditions at: GABS (BAMAKO/SENOU (MI, ML) observed 0900 UTC 18 April 2019
Temperature: 34.0°C (93°F)
Dewpoint: 13.0°C (55°F) [RH = 28%]
Pressure (altimeter): 29.91 inches Hg (1013.0 mb)
Winds: from the NE (50 degrees) at 6 MPH (5 knots; 2.6 m/s)
Visibility: 4 miles ( 6 km)
Ceiling: at least 12,000 feet AGL
Clouds: sky clear below 12,000 feet AGL
Weather: no significant weather observed at this time

METAR text: GABS 180830Z 01005KT 340V050 6000 NSC 32/07 Q1013 NOSIG
Conditions at: GABS (BAMAKO/SENOU (MI, ML) observed 0830 UTC 18 April 2019
Temperature: 32.0°C (90°F)
Dewpoint: 7.0°C (45°F) [RH = 21%]
Pressure (altimeter): 29.91 inches Hg (1013.0 mb)
Winds: from the N (10 degrees) at 6 MPH (5 knots; 2.6 m/s)
Visibility: 4 miles ( 6 km)
Ceiling: at least 12,000 feet AGL
Clouds: sky clear below 12,000 feet AGL
Weather: no significant weather observed at this time

METAR text: GABS 180800Z 01005KT 6000 NSC 32/08 Q1013 NOSIG
Conditions at: GABS (BAMAKO/SENOU (MI, ML) observed 0800 UTC 18 April 2019
Temperature: 32.0°C (90°F)
Dewpoint: 8.0°C (46°F) [RH = 23%]
Pressure (altimeter): 29.91 inches Hg (1013.0 mb)
Winds: from the N (10 degrees) at 6 MPH (5 knots; 2.6 m/s)
Visibility: 4 miles ( 6 km)
Ceiling: at least 12,000 feet AGL
Clouds: sky clear below 12,000 feet AGL
Weather: no significant weather observed at this time

METAR text: GABS 180730Z 00000KT 6000 NSC 30/15 Q1012 NOSIG
Conditions at: GABS (BAMAKO/SENOU (MI, ML) observed 0730 UTC 18 April 2019
Temperature: 30.0°C (86°F)
Dewpoint: 15.0°C (59°F) [RH = 40%]
Pressure (altimeter): 29.88 inches Hg (1012.0 mb)
Winds: calm
Visibility: 4 miles ( 6 km)
Ceiling: at least 12,000 feet AGL
Clouds: sky clear below 12,000 feet AGL
Weather: no significant weather observed at this time

METAR text: GABS 180700Z 03003KT 8000 NSC 29/16 Q1012 NOSIG
Conditions at: GABS (BAMAKO/SENOU (MI, ML) observed 0700 UTC 18 April 2019
Temperature: 29.0°C (84°F)
Dewpoint: 16.0°C (61°F) [RH = 45%]
Pressure (altimeter): 29.88 inches Hg (1012.0 mb)
Winds: from the NNE (30 degrees) at 3 MPH (3 knots; 1.5 m/s)
Visibility: 5 miles ( 8 km)
Ceiling: at least 12,000 feet AGL
Clouds: sky clear below 12,000 feet AGL
Weather: no significant weather observed at this time

METAR text: GABS 180630Z 36006KT CAVOK 28/17 Q1012 NOSIG
Conditions at: GABS (BAMAKO/SENOU (MI, ML) observed 0630 UTC 18 April 2019
Temperature: 28.0°C (82°F)
Dewpoint: 17.0°C (63°F) [RH = 51%]
Pressure (altimeter): 29.88 inches Hg (1012.0 mb)
Winds: from the N (360 degrees) at 7 MPH (6 knots; 3.1 m/s)
Visibility: 6 or more miles (10+ km)
Ceiling: ceiling and visibility are OK
Clouds: unknown
Weather: no significant weather observed at this time

METAR text: GABS 180600Z VRB02KT CAVOK 28/17 Q1012 NOSIG
Conditions at: GABS (BAMAKO/SENOU (MI, ML) observed 0600 UTC 18 April 2019
Temperature: 28.0°C (82°F)
Dewpoint: 17.0°C (63°F) [RH = 51%]
Pressure (altimeter): 29.88 inches Hg (1012.0 mb)
Winds: variable direction winds at 2 MPH (2 knots; 1.0 m/s)
Visibility: 6 or more miles (10+ km)
Ceiling: ceiling and visibility are OK
Clouds: unknown
Weather: no significant weather observed at this time

METAR text: GABS 180530Z 34002KT CAVOK 28/18 Q1011 NOSIG
Conditions at: GABS (BAMAKO/SENOU (MI, ML) observed 0530 UTC 18 April 2019
Temperature: 28.0°C (82°F)
Dewpoint: 18.0°C (64°F) [RH = 55%]
Pressure (altimeter): 29.85 inches Hg (1011.0 mb)
Winds: from the NNW (340 degrees) at 2 MPH (2 knots; 1.0 m/s)
Visibility: 6 or more miles (10+ km)
Ceiling: ceiling and visibility are OK
Clouds: unknown
Weather: no significant weather observed at this time

METAR text: GABS 180500Z 00000KT CAVOK 28/18 Q1011 NOSIG
Conditions at: GABS (BAMAKO/SENOU (MI, ML) observed 0500 UTC 18 April 2019
Temperature: 28.0°C (82°F)
Dewpoint: 18.0°C (64°F) [RH = 55%]
Pressure (altimeter): 29.85 inches Hg (1011.0 mb)
Winds: calm
Visibility: 6 or more miles (10+ km)
Ceiling: ceiling and visibility are OK
Clouds: unknown
Weather: no significant weather observed at this time

METAR text: GABS 180430Z 20002KT CAVOK 28/17 Q1010 NOSIG
Conditions at: GABS (BAMAKO/SENOU (MI, ML) observed 0430 UTC 18 April 2019
Temperature: 28.0°C (82°F)
Dewpoint: 17.0°C (63°F) [RH = 51%]
Pressure (altimeter): 29.82 inches Hg (1010.0 mb)
Winds: from the SSW (200 degrees) at 2 MPH (2 knots; 1.0 m/s)
Visibility: 6 or more miles (10+ km)
Ceiling: ceiling and visibility are OK
Clouds: unknown
Weather: no significant weather observed at this time

METAR text: GABS 180400Z 19003KT CAVOK 28/17 Q1010 NOSIG
Conditions at: GABS (BAMAKO/SENOU (MI, ML) observed 0400 UTC 18 April 2019
Temperature: 28.0°C (82°F)
Dewpoint: 17.0°C (63°F) [RH = 51%]
Pressure (altimeter): 29.82 inches Hg (1010.0 mb)
Winds: from the S (190 degrees) at 3 MPH (3 knots; 1.5 m/s)
Visibility: 6 or more miles (10+ km)
Ceiling: ceiling and visibility are OK
Clouds: unknown
Weather: no significant weather observed at this time

METAR text: GABS 180330Z 17004KT 140V200 CAVOK 28/17 Q1010 NOSIG
Conditions at: GABS (BAMAKO/SENOU (MI, ML) observed 0330 UTC 18 April 2019
Temperature: 28.0°C (82°F)
Dewpoint: 17.0°C (63°F) [RH = 51%]
Pressure (altimeter): 29.82 inches Hg (1010.0 mb)
Winds: from the S (170 degrees) at 5 MPH (4 knots; 2.1 m/s)
Visibility: 6 or more miles (10+ km)
Ceiling: ceiling and visibility are OK
Clouds: unknown
Weather: no significant weather observed at this time

METAR text: GABS 180300Z 18003KT CAVOK 28/17 Q1010 NOSIG
Conditions at: GABS (BAMAKO/SENOU (MI, ML) observed 0300 UTC 18 April 2019
Temperature: 28.0°C (82°F)
Dewpoint: 17.0°C (63°F) [RH = 51%]
Pressure (altimeter): 29.82 inches Hg (1010.0 mb)
Winds: from the S (180 degrees) at 3 MPH (3 knots; 1.5 m/s)
Visibility: 6 or more miles (10+ km)
Ceiling: ceiling and visibility are OK
Clouds: unknown
Weather: no significant weather observed at this time

METAR text: GABS 180230Z 18003KT CAVOK 28/17 Q1011 NOSIG
Conditions at: GABS (BAMAKO/SENOU (MI, ML) observed 0230 UTC 18 April 2019
Temperature: 28.0°C (82°F)
Dewpoint: 17.0°C (63°F) [RH = 51%]
Pressure (altimeter): 29.85 inches Hg (1011.0 mb)
Winds: from the S (180 degrees) at 3 MPH (3 knots; 1.5 m/s)
Visibility: 6 or more miles (10+ km)
Ceiling: ceiling and visibility are OK
Clouds: unknown
Weather: no significant weather observed at this time

METAR text: GABS 180200Z 20003KT CAVOK 28/17 Q1011 NOSIG
Conditions at: GABS (BAMAKO/SENOU (MI, ML) observed 0200 UTC 18 April 2019
Temperature: 28.0°C (82°F)
Dewpoint: 17.0°C (63°F) [RH = 51%]
Pressure (altimeter): 29.85 inches Hg (1011.0 mb)
Winds: from the SSW (200 degrees) at 3 MPH (3 knots; 1.5 m/s)
Visibility: 6 or more miles (10+ km)
Ceiling: ceiling and visibility are OK
Clouds: unknown
Weather: no significant weather observed at this time

METAR text: GABS 180130Z 23001KT CAVOK 27/16 Q1011 NOSIG
Conditions at: GABS (BAMAKO/SENOU (MI, ML) observed 0130 UTC 18 April 2019
Temperature: 27.0°C (81°F)
Dewpoint: 16.0°C (61°F) [RH = 51%]
Pressure (altimeter): 29.85 inches Hg (1011.0 mb)
Winds: from the SW (230 degrees) at 1 MPH (1 knots; 0.5 m/s)
Visibility: 6 or more miles (10+ km)
Ceiling: ceiling and visibility are OK
Clouds: unknown
Weather: no significant weather observed at this time

METAR text: GABS 180100Z 23002KT CAVOK 27/15 Q1011 NOSIG
Conditions at: GABS (BAMAKO/SENOU (MI, ML) observed 0100 UTC 18 April 2019
Temperature: 27.0°C (81°F)
Dewpoint: 15.0°C (59°F) [RH = 48%]
Pressure (altimeter): 29.85 inches Hg (1011.0 mb)
Winds: from the SW (230 degrees) at 2 MPH (2 knots; 1.0 m/s)
Visibility: 6 or more miles (10+ km)
Ceiling: ceiling and visibility are OK
Clouds: unknown
Weather: no significant weather observed at this time

METAR text: GABS 180030Z 22004KT CAVOK 28/14 Q1012 NOSIG
Conditions at: GABS (BAMAKO/SENOU (MI, ML) observed 0030 UTC 18 April 2019
Temperature: 28.0°C (82°F)
Dewpoint: 14.0°C (57°F) [RH = 42%]
Pressure (altimeter): 29.88 inches Hg (1012.0 mb)
Winds: from the SW (220 degrees) at 5 MPH (4 knots; 2.1 m/s)
Visibility: 6 or more miles (10+ km)
Ceiling: ceiling and visibility are OK
Clouds: unknown
Weather: no significant weather observed at this time

METAR text: GABS 180000Z VRB03KT CAVOK 27/11 Q1012 NOSIG
Conditions at: GABS (BAMAKO/SENOU (MI, ML) observed 0000 UTC 18 April 2019
Temperature: 27.0°C (81°F)
Dewpoint: 11.0°C (52°F) [RH = 37%]
Pressure (altimeter): 29.88 inches Hg (1012.0 mb)
Winds: variable direction winds at 3 MPH (3 knots; 1.5 m/s)
Visibility: 6 or more miles (10+ km)
Ceiling: ceiling and visibility are OK
Clouds: unknown
Weather: no significant weather observed at this time

METAR text: GABS 172330Z 24002KT CAVOK 27/06 Q1013 NOSIG
Conditions at: GABS (BAMAKO/SENOU (MI, ML) observed 2330 UTC 17 April 2019
Temperature: 27.0°C (81°F)
Dewpoint: 6.0°C (43°F) [RH = 26%]
Pressure (altimeter): 29.91 inches Hg (1013.0 mb)
Winds: from the WSW (240 degrees) at 2 MPH (2 knots; 1.0 m/s)
Visibility: 6 or more miles (10+ km)
Ceiling: ceiling and visibility are OK
Clouds: unknown
Weather: no significant weather observed at this time

METAR text: GABS 172300Z 00000KT CAVOK 29/05 Q1013 NOSIG
Conditions at: GABS (BAMAKO/SENOU (MI, ML) observed 2300 UTC 17 April 2019
Temperature: 29.0°C (84°F)
Dewpoint: 5.0°C (41°F) [RH = 22%]
Pressure (altimeter): 29.91 inches Hg (1013.0 mb)
Winds: calm
Visibility: 6 or more miles (10+ km)
Ceiling: ceiling and visibility are OK
Clouds: unknown
Weather: no significant weather observed at this time

METAR text: GABS 172230Z VRB02KT CAVOK 30/03 Q1013 NOSIG
Conditions at: GABS (BAMAKO/SENOU (MI, ML) observed 2230 UTC 17 April 2019
Temperature: 30.0°C (86°F)
Dewpoint: 3.0°C (37°F) [RH = 18%]
Pressure (altimeter): 29.91 inches Hg (1013.0 mb)
Winds: variable direction winds at 2 MPH (2 knots; 1.0 m/s)
Visibility: 6 or more miles (10+ km)
Ceiling: ceiling and visibility are OK
Clouds: unknown
Weather: no significant weather observed at this time

METAR text: GABS 172200Z 36004KT 340V050 CAVOK 31/04 Q1012 NOSIG
Conditions at: GABS (BAMAKO/SENOU (MI, ML) observed 2200 UTC 17 April 2019
Temperature: 31.0°C (88°F)
Dewpoint: 4.0°C (39°F) [RH = 18%]
Pressure (altimeter): 29.88 inches Hg (1012.0 mb)
Winds: from the N (360 degrees) at 5 MPH (4 knots; 2.1 m/s)
Visibility: 6 or more miles (10+ km)
Ceiling: ceiling and visibility are OK
Clouds: unknown
Weather: no significant weather observed at this time

METAR text: GABS 172130Z 06003KT CAVOK 31/02 Q1012 NOSIG
Conditions at: GABS (BAMAKO/SENOU (MI, ML) observed 2130 UTC 17 April 2019
Temperature: 31.0°C (88°F)
Dewpoint: 2.0°C (36°F) [RH = 16%]
Pressure (altimeter): 29.88 inches Hg (1012.0 mb)
Winds: from the ENE (60 degrees) at 3 MPH (3 knots; 1.5 m/s)
Visibility: 6 or more miles (10+ km)
Ceiling: ceiling and visibility are OK
Clouds: unknown
Weather: no significant weather observed at this time

METAR text: GABS 172100Z 09003KT CAVOK 34/05 Q1011 NOSIG
Conditions at: GABS (BAMAKO/SENOU (MI, ML) observed 2100 UTC 17 April 2019
Temperature: 34.0°C (93°F)
Dewpoint: 5.0°C (41°F) [RH = 16%]
Pressure (altimeter): 29.85 inches Hg (1011.0 mb)
Winds: from the E (90 degrees) at 3 MPH (3 knots; 1.5 m/s)
Visibility: 6 or more miles (10+ km)
Ceiling: ceiling and visibility are OK
Clouds: unknown
Weather: no significant weather observed at this time

METAR text: GABS 172030Z 09003KT CAVOK 35/01 Q1011 NOSIG
Conditions at: GABS (BAMAKO/SENOU (MI, ML) observed 2030 UTC 17 April 2019
Temperature: 35.0°C (95°F)
Dewpoint: 1.0°C (34°F) [RH = 12%]
Pressure (altimeter): 29.85 inches Hg (1011.0 mb)
Winds: from the E (90 degrees) at 3 MPH (3 knots; 1.5 m/s)
Visibility: 6 or more miles (10+ km)
Ceiling: ceiling and visibility are OK
Clouds: unknown
Weather: no significant weather observed at this time

METAR text: GABS 172000Z 10004KT 9999 FEW030 35/02 Q1011 NOSIG
Conditions at: GABS (BAMAKO/SENOU (MI, ML) observed 2000 UTC 17 April 2019
Temperature: 35.0°C (95°F)
Dewpoint: 2.0°C (36°F) [RH = 13%]
Pressure (altimeter): 29.85 inches Hg (1011.0 mb)
Winds: from the E (100 degrees) at 5 MPH (4 knots; 2.1 m/s)
Visibility: 6 or more miles (10+ km)
Ceiling: at least 12,000 feet AGL
Clouds: few clouds at 3000 feet AGL
Weather: no significant weather observed at this time

METAR text: GABS 171930Z 09003KT 9999 FEW030 36/04 Q1011 NOSIG
Conditions at: GABS (BAMAKO/SENOU (MI, ML) observed 1930 UTC 17 April 2019
Temperature: 36.0°C (97°F)
Dewpoint: 4.0°C (39°F) [RH = 14%]
Pressure (altimeter): 29.85 inches Hg (1011.0 mb)
Winds: from the E (90 degrees) at 3 MPH (3 knots; 1.5 m/s)
Visibility: 6 or more miles (10+ km)
Ceiling: at least 12,000 feet AGL
Clouds: few clouds at 3000 feet AGL
Weather: no significant weather observed at this time

METAR text: GABS 171900Z 09005KT 070V130 9999 FEW030 38/04 Q1010 NOSIG
Conditions at: GABS (BAMAKO/SENOU (MI, ML) observed 1900 UTC 17 April 2019
Temperature: 38.0°C (100°F)
Dewpoint: 4.0°C (39°F) [RH = 12%]
Pressure (altimeter): 29.82 inches Hg (1010.0 mb)
Winds: from the E (90 degrees) at 6 MPH (5 knots; 2.6 m/s)
Visibility: 6 or more miles (10+ km)
Ceiling: at least 12,000 feet AGL
Clouds: few clouds at 3000 feet AGL
Weather: no significant weather observed at this time

METAR text: GABS 171830Z 08005KT 050V110 9999 FEW030 38/06 Q1010 NOSIG
Conditions at: GABS (BAMAKO/SENOU (MI, ML) observed 1830 UTC 17 April 2019
Temperature: 38.0°C (100°F)
Dewpoint: 6.0°C (43°F) [RH = 14%]
Pressure (altimeter): 29.82 inches Hg (1010.0 mb)
Winds: from the E (80 degrees) at 6 MPH (5 knots; 2.6 m/s)
Visibility: 6 or more miles (10+ km)
Ceiling: at least 12,000 feet AGL
Clouds: few clouds at 3000 feet AGL
Weather: no significant weather observed at this time

METAR text: GABS 171800Z VRB03KT 9999 FEW030 38/08 Q1010 NOSIG
Conditions at: GABS (BAMAKO/SENOU (MI, ML) observed 1800 UTC 17 April 2019
Temperature: 38.0°C (100°F)
Dewpoint: 8.0°C (46°F) [RH = 16%]
Pressure (altimeter): 29.82 inches Hg (1010.0 mb)
Winds: variable direction winds at 3 MPH (3 knots; 1.5 m/s)
Visibility: 6 or more miles (10+ km)
Ceiling: at least 12,000 feet AGL
Clouds: few clouds at 3000 feet AGL
Weather: no significant weather observed at this time

METAR text: GABS 171730Z VRB02KT 9999 FEW030 39/14 Q1009 NOSIG
Conditions at: GABS (BAMAKO/SENOU (MI, ML) observed 1730 UTC 17 April 2019
Temperature: 39.0°C (102°F)
Dewpoint: 14.0°C (57°F) [RH = 23%]
Pressure (altimeter): 29.79 inches Hg (1009.0 mb)
Winds: variable direction winds at 2 MPH (2 knots; 1.0 m/s)
Visibility: 6 or more miles (10+ km)
Ceiling: at least 12,000 feet AGL
Clouds: few clouds at 3000 feet AGL
Weather: no significant weather observed at this time

METAR text: GABS 171700Z 01004KT 330V090 9999 SCT030 39/15 Q1009 NOSIG
Conditions at: GABS (BAMAKO/SENOU (MI, ML) observed 1700 UTC 17 April 2019
Temperature: 39.0°C (102°F)
Dewpoint: 15.0°C (59°F) [RH = 24%]
Pressure (altimeter): 29.79 inches Hg (1009.0 mb)
Winds: from the N (10 degrees) at 5 MPH (4 knots; 2.1 m/s)
Visibility: 6 or more miles (10+ km)
Ceiling: at least 12,000 feet AGL
Clouds: scattered clouds at 3000 feet AGL
Weather: no significant weather observed at this time

METAR text: GABS 171630Z VRB05KT 9999 SCT030 39/14 Q1010 NOSIG
Conditions at: GABS (BAMAKO/SENOU (MI, ML) observed 1630 UTC 17 April 2019
Temperature: 39.0°C (102°F)
Dewpoint: 14.0°C (57°F) [RH = 23%]
Pressure (altimeter): 29.82 inches Hg (1010.0 mb)
Winds: variable direction winds at 6 MPH (5 knots; 2.6 m/s)
Visibility: 6 or more miles (10+ km)
Ceiling: at least 12,000 feet AGL
Clouds: scattered clouds at 3000 feet AGL
Weather: no significant weather observed at this time

METAR text: GABS 171600Z 21007KT 180V260 9999 SCT030 39/14 Q1010 NOSIG
Conditions at: GABS (BAMAKO/SENOU (MI, ML) observed 1600 UTC 17 April 2019
Temperature: 39.0°C (102°F)
Dewpoint: 14.0°C (57°F) [RH = 23%]
Pressure (altimeter): 29.82 inches Hg (1010.0 mb)
Winds: from the SSW (210 degrees) at 8 MPH (7 knots; 3.6 m/s)
Visibility: 6 or more miles (10+ km)
Ceiling: at least 12,000 feet AGL
Clouds: scattered clouds at 3000 feet AGL
Weather: no significant weather observed at this time

METAR text: GABS 171530Z 10004KT 020V160 9999 SCT030 39/15 Q1010 NOSIG
Conditions at: GABS (BAMAKO/SENOU (MI, ML) observed 1530 UTC 17 April 2019
Temperature: 39.0°C (102°F)
Dewpoint: 15.0°C (59°F) [RH = 24%]
Pressure (altimeter): 29.82 inches Hg (1010.0 mb)
Winds: from the E (100 degrees) at 5 MPH (4 knots; 2.1 m/s)
Visibility: 6 or more miles (10+ km)
Ceiling: at least 12,000 feet AGL
Clouds: scattered clouds at 3000 feet AGL
Weather: no significant weather observed at this time

METAR text: GABS 171500Z 17008KT 100V240 9999 SCT040 38/15 Q1010 NOSIG
Conditions at: GABS (BAMAKO/SENOU (MI, ML) observed 1500 UTC 17 April 2019
Temperature: 38.0°C (100°F)
Dewpoint: 15.0°C (59°F) [RH = 26%]
Pressure (altimeter): 29.82 inches Hg (1010.0 mb)
Winds: from the S (170 degrees) at 9 MPH (8 knots; 4.1 m/s)
Visibility: 6 or more miles (10+ km)
Ceiling: at least 12,000 feet AGL
Clouds: scattered clouds at 4000 feet AGL
Weather: no significant weather observed at this time

METAR text: GABS 171400Z 14006KT 070V220 9999 SCT040 38/15 Q1011 NOSIG
Conditions at: GABS (BAMAKO/SENOU (MI, ML) observed 1400 UTC 17 April 2019
Temperature: 38.0°C (100°F)
Dewpoint: 15.0°C (59°F) [RH = 26%]
Pressure (altimeter): 29.85 inches Hg (1011.0 mb)
Winds: from the SE (140 degrees) at 7 MPH (6 knots; 3.1 m/s)
Visibility: 6 or more miles (10+ km)
Ceiling: at least 12,000 feet AGL
Clouds: scattered clouds at 4000 feet AGL
Weather: no significant weather observed at this time

METAR text: GABS 171330Z 18006KT 120V260 CAVOK 37/15 Q1012 NOSIG
Conditions at: GABS (BAMAKO/SENOU (MI, ML) observed 1330 UTC 17 April 2019
Temperature: 37.0°C (99°F)
Dewpoint: 15.0°C (59°F) [RH = 27%]
Pressure (altimeter): 29.88 inches Hg (1012.0 mb)
Winds: from the S (180 degrees) at 7 MPH (6 knots; 3.1 m/s)
Visibility: 6 or more miles (10+ km)
Ceiling: ceiling and visibility are OK
Clouds: unknown
Weather: no significant weather observed at this time

METAR text: GABS 171300Z VRB06G17KT CAVOK 37/17 Q1013 NOSIG
Conditions at: GABS (BAMAKO/SENOU (MI, ML) observed 1300 UTC 17 April 2019
Temperature: 37.0°C (99°F)
Dewpoint: 17.0°C (63°F) [RH = 31%]
Pressure (altimeter): 29.91 inches Hg (1013.0 mb)
Winds: variable direction winds at 7 MPH (6 knots; 3.1 m/s)
gusting to 20 MPH (17 knots; 8.7 m/s)
Visibility: 6 or more miles (10+ km)
Ceiling: ceiling and visibility are OK
Clouds: unknown
Weather: no significant weather observed at this time

METAR text: GABS 171230Z 26010KT 200V300 CAVOK 37/17 Q1013 NOSIG
Conditions at: GABS (BAMAKO/SENOU (MI, ML) observed 1230 UTC 17 April 2019
Temperature: 37.0°C (99°F)
Dewpoint: 17.0°C (63°F) [RH = 31%]
Pressure (altimeter): 29.91 inches Hg (1013.0 mb)
Winds: from the W (260 degrees) at 12 MPH (10 knots; 5.1 m/s)
Visibility: 6 or more miles (10+ km)
Ceiling: ceiling and visibility are OK
Clouds: unknown
Weather: no significant weather observed at this time

METAR text: GABS 171200Z 24012KT 210V270 CAVOK 36/17 Q1014 NOSIG
Conditions at: GABS (BAMAKO/SENOU (MI, ML) observed 1200 UTC 17 April 2019
Temperature: 36.0°C (97°F)
Dewpoint: 17.0°C (63°F) [RH = 33%]
Pressure (altimeter): 29.94 inches Hg (1014.0 mb)
Winds: from the WSW (240 degrees) at 14 MPH (12 knots; 6.2 m/s)
Visibility: 6 or more miles (10+ km)
Ceiling: ceiling and visibility are OK
Clouds: unknown
Weather: no significant weather observed at this time

METAR text: GABS 171130Z 24013KT 210V280 CAVOK 35/18 Q1014 NOSIG
Conditions at: GABS (BAMAKO/SENOU (MI, ML) observed 1130 UTC 17 April 2019
Temperature: 35.0°C (95°F)
Dewpoint: 18.0°C (64°F) [RH = 37%]
Pressure (altimeter): 29.94 inches Hg (1014.0 mb)
Winds: from the WSW (240 degrees) at 15 MPH (13 knots; 6.7 m/s)
Visibility: 6 or more miles (10+ km)
Ceiling: ceiling and visibility are OK
Clouds: unknown
Weather: no significant weather observed at this time

METAR text: GABS 171100Z 22013KT 180V250 CAVOK 35/18 Q1014 NOSIG
Conditions at: GABS (BAMAKO/SENOU (MI, ML) observed 1100 UTC 17 April 2019
Temperature: 35.0°C (95°F)
Dewpoint: 18.0°C (64°F) [RH = 37%]
Pressure (altimeter): 29.94 inches Hg (1014.0 mb)
Winds: from the SW (220 degrees) at 15 MPH (13 knots; 6.7 m/s)
Visibility: 6 or more miles (10+ km)
Ceiling: ceiling and visibility are OK
Clouds: unknown
Weather: no significant weather observed at this time

METAR text: GABS 171030Z 22014KT 190V260 CAVOK 34/18 Q1015 NOSIG
Conditions at: GABS (BAMAKO/SENOU (MI, ML) observed 1030 UTC 17 April 2019
Temperature: 34.0°C (93°F)
Dewpoint: 18.0°C (64°F) [RH = 39%]
Pressure (altimeter): 29.97 inches Hg (1015.0 mb)
Winds: from the SW (220 degrees) at 16 MPH (14 knots; 7.2 m/s)
Visibility: 6 or more miles (10+ km)
Ceiling: ceiling and visibility are OK
Clouds: unknown
Weather: no significant weather observed at this time

METAR text: GABS 171000Z 21011KT 180V250 CAVOK 33/18 Q1015 NOSIG
Conditions at: GABS (BAMAKO/SENOU (MI, ML) observed 1000 UTC 17 April 2019
Temperature: 33.0°C (91°F)
Dewpoint: 18.0°C (64°F) [RH = 41%]
Pressure (altimeter): 29.97 inches Hg (1015.0 mb)
Winds: from the SSW (210 degrees) at 13 MPH (11 knots; 5.7 m/s)
Visibility: 6 or more miles (10+ km)
Ceiling: ceiling and visibility are OK
Clouds: unknown
Weather: no significant weather observed at this time

METAR text: GABS 170930Z 21009KT 180V240 CAVOK 32/18 Q1014 NOSIG
Conditions at: GABS (BAMAKO/SENOU (MI, ML) observed 0930 UTC 17 April 2019
Temperature: 32.0°C (90°F)
Dewpoint: 18.0°C (64°F) [RH = 43%]
Pressure (altimeter): 29.94 inches Hg (1014.0 mb)
Winds: from the SSW (210 degrees) at 10 MPH (9 knots; 4.6 m/s)
Visibility: 6 or more miles (10+ km)
Ceiling: ceiling and visibility are OK
Clouds: unknown
Weather: no significant weather observed at this time

METAR text: GABS 170900Z 21005KT CAVOK 31/16 Q1014 NOSIG
Conditions at: GABS (BAMAKO/SENOU (MI, ML) observed 0900 UTC 17 April 2019
Temperature: 31.0°C (88°F)
Dewpoint: 16.0°C (61°F) [RH = 40%]
Pressure (altimeter): 29.94 inches Hg (1014.0 mb)
Winds: from the SSW (210 degrees) at 6 MPH (5 knots; 2.6 m/s)
Visibility: 6 or more miles (10+ km)
Ceiling: ceiling and visibility are OK
Clouds: unknown
Weather: no significant weather observed at this time

METAR text: GABS 170830Z 17003KT 140V200 8000 NSC 30/11 Q1014 NOSIG
Conditions at: GABS (BAMAKO/SENOU (MI, ML) observed 0830 UTC 17 April 2019
Temperature: 30.0°C (86°F)
Dewpoint: 11.0°C (52°F) [RH = 31%]
Pressure (altimeter): 29.94 inches Hg (1014.0 mb)
Winds: from the S (170 degrees) at 3 MPH (3 knots; 1.5 m/s)
Visibility: 5 miles ( 8 km)
Ceiling: at least 12,000 feet AGL
Clouds: sky clear below 12,000 feet AGL
Weather: no significant weather observed at this time

METAR text: GABS 170800Z VRB02KT 6000 NSC 27/02 Q1014 NOSIG
Conditions at: GABS (BAMAKO/SENOU (MI, ML) observed 0800 UTC 17 April 2019
Temperature: 27.0°C (81°F)
Dewpoint: 2.0°C (36°F) [RH = 20%]
Pressure (altimeter): 29.94 inches Hg (1014.0 mb)
Winds: variable direction winds at 2 MPH (2 knots; 1.0 m/s)
Visibility: 4 miles ( 6 km)
Ceiling: at least 12,000 feet AGL
Clouds: sky clear below 12,000 feet AGL
Weather: no significant weather observed at this time

METAR text: GABS 170730Z 14003KT 6000 NSC 27/02 Q1013 NOSIG
Conditions at: GABS (BAMAKO/SENOU (MI, ML) observed 0730 UTC 17 April 2019
Temperature: 27.0°C (81°F)
Dewpoint: 2.0°C (36°F) [RH = 20%]
Pressure (altimeter): 29.91 inches Hg (1013.0 mb)
Winds: from the SE (140 degrees) at 3 MPH (3 knots; 1.5 m/s)
Visibility: 4 miles ( 6 km)
Ceiling: at least 12,000 feet AGL
Clouds: sky clear below 12,000 feet AGL
Weather: no significant weather observed at this time

METAR text: GABS 170700Z 14005KT CAVOK 26/02 Q1013 NOSIG
Conditions at: GABS (BAMAKO/SENOU (MI, ML) observed 0700 UTC 17 April 2019
Temperature: 26.0°C (79°F)
Dewpoint: 2.0°C (36°F) [RH = 21%]
Pressure (altimeter): 29.91 inches Hg (1013.0 mb)
Winds: from the SE (140 degrees) at 6 MPH (5 knots; 2.6 m/s)
Visibility: 6 or more miles (10+ km)
Ceiling: ceiling and visibility are OK
Clouds: unknown
Weather: no significant weather observed at this time

Forecast for: GABS (BAMAKO/SENOU (MI, ML)
Text: TAF GABS 181700Z 1818/1924 05010KT CAVOK
Forecast period: 1800 UTC 18 April 2019 to 0300 UTC 19 April 2019
Forecast type: FROM: standard forecast or significant change
Winds: from the NE (50 degrees) at 12 MPH (10 knots; 5.1 m/s)
Visibility: 6 or more miles 10+ km)
Ceiling: unknown
Clouds: missing
Weather: NSW  (no significant weather)
Text: BECMG 1903/1905 18008KT
Forecast period: 0300 UTC 19 April 2019 to 0000 UTC 20 April 2019
Forecast type: BECOMING: Conditions expected to become as follows by 0500 UTC 19 April 2019
Winds: from the S (180 degrees) at 9 MPH (8 knots; 4.1 m/s)
Visibility: 6 or more miles 10+ km)
Ceiling: unknown
Clouds: missing
Weather: NSW  (no significant weather)